Time;durP1;ratioP1;P1;durP2;ratioP2;P2;SDS_P1;SDS_P2;PMS_P1;PMS_P2;Temp;Humidity;BMP_temperature;BMP_pressure;BME280_temperature;BME280_humidity;BME280_pressure;Samples;Min_cycle;Max_cycle;Signal;HPM_P1;HPM_P2
2021/03/26 00:01:49;;;;;;;16.20;7.70;;;5.10;99.90;;;;;;5070625;28;20020;-72
2021/03/26 00:04:15;;;;;;;11.77;6.40;;;5.00;99.90;;;;;;5058283;28;20488;-71
2021/03/26 00:06:46;;;;;;;14.10;6.87;;;5.00;99.90;;;;;;5070668;28;20167;-72
2021/03/26 00:09:15;;;;;;;16.87;6.73;;;5.00;99.90;;;;;;5070789;28;20020;-72
2021/03/26 00:11:42;;;;;;;14.20;7.57;;;4.90;99.90;;;;;;5071550;28;20456;-79
2021/03/26 00:14:08;;;;;;;14.83;7.20;;;4.90;99.90;;;;;;5078396;28;20028;-80
2021/03/26 00:16:33;;;;;;;16.23;7.77;;;4.90;99.90;;;;;;5071392;28;20025;-80
2021/03/26 00:18:59;;;;;;;15.53;8.00;;;4.80;99.90;;;;;;5067378;28;20028;-71
2021/03/26 00:21:25;;;;;;;11.63;6.60;;;4.80;99.90;;;;;;5070408;28;20055;-71
2021/03/26 00:23:51;;;;;;;12.67;6.70;;;4.90;99.90;;;;;;5071380;28;20059;-72
2021/03/26 00:26:17;;;;;;;16.87;6.70;;;4.80;99.90;;;;;;5082278;28;20040;-72
2021/03/26 00:28:44;;;;;;;15.33;8.20;;;4.80;99.90;;;;;;5071643;28;20392;-73
2021/03/26 00:31:09;;;;;;;14.30;7.90;;;4.80;99.90;;;;;;5056699;28;20041;-80
2021/03/26 00:33:35;;;;;;;14.27;7.63;;;4.80;99.90;;;;;;5070794;28;20480;-79
2021/03/26 00:36:01;;;;;;;18.83;7.83;;;4.80;99.90;;;;;;5069765;28;20036;-79
2021/03/26 00:38:27;;;;;;;14.00;7.23;;;4.80;99.90;;;;;;5072989;28;20501;-80
2021/03/26 00:40:54;;;;;;;19.07;7.70;;;4.70;99.90;;;;;;5073989;28;20020;-80
2021/03/26 00:43:20;;;;;;;12.63;6.43;;;4.70;99.90;;;;;;5070605;28;20031;-79
2021/03/26 00:45:46;;;;;;;17.50;7.57;;;4.70;99.90;;;;;;5069397;28;20024;-80
2021/03/26 00:48:13;;;;;;;16.77;7.17;;;4.70;99.90;;;;;;5070762;28;20108;-79
2021/03/26 00:50:42;;;;;;;12.67;7.00;;;4.70;99.90;;;;;;5070529;28;20063;-80
2021/03/26 00:53:16;;;;;;;13.43;7.03;;;4.60;99.90;;;;;;5083149;28;20478;-72
2021/03/26 00:55:42;;;;;;;12.80;6.97;;;4.60;99.90;;;;;;5070431;28;20024;-73
2021/03/26 00:58:08;;;;;;;13.20;7.37;;;4.60;99.90;;;;;;5069884;28;20045;-73
2021/03/26 01:00:37;;;;;;;12.80;7.07;;;4.60;99.90;;;;;;5070308;28;20016;-71
2021/03/26 01:03:03;;;;;;;14.43;7.57;;;4.60;99.90;;;;;;5069977;28;20108;-71
2021/03/26 01:05:32;;;;;;;13.47;6.80;;;4.60;99.90;;;;;;5068719;28;20025;-71
2021/03/26 01:07:59;;;;;;;14.03;6.83;;;4.50;99.90;;;;;;5045799;28;20416;-72
2021/03/26 01:10:30;;;;;;;17.50;7.07;;;4.50;99.90;;;;;;5069790;28;20392;-71
2021/03/26 01:12:56;;;;;;;15.87;7.90;;;4.50;99.90;;;;;;5070274;28;20033;-71
2021/03/26 01:15:24;;;;;;;16.40;7.53;;;4.50;99.90;;;;;;5069930;28;20029;-72
2021/03/26 01:17:50;;;;;;;16.23;7.77;;;4.50;99.90;;;;;;5070145;28;20116;-71
2021/03/26 01:20:21;;;;;;;18.77;7.13;;;4.50;99.90;;;;;;5071301;28;20354;-72
2021/03/26 01:22:47;;;;;;;14.60;7.03;;;4.40;99.90;;;;;;5059933;28;20082;-71
2021/03/26 01:25:23;;;;;;;12.00;7.50;;;4.40;99.90;;;;;;5069617;28;20401;-72
2021/03/26 01:27:48;;;;;;;14.90;6.80;;;4.40;99.90;;;;;;5069783;28;20445;-71
2021/03/26 01:30:17;;;;;;;16.17;7.27;;;4.50;99.90;;;;;;5080215;28;20071;-71
2021/03/26 01:32:42;;;;;;;12.43;7.07;;;4.50;99.90;;;;;;5069722;28;20025;-71
2021/03/26 01:35:10;;;;;;;17.10;6.93;;;4.60;99.90;;;;;;5069613;28;20077;-71
2021/03/26 01:37:36;;;;;;;12.83;7.17;;;4.60;99.90;;;;;;5069877;28;20009;-71
2021/03/26 01:40:05;;;;;;;17.53;7.43;;;4.60;99.90;;;;;;5051853;28;20025;-72
2021/03/26 01:42:34;;;;;;;15.07;7.37;;;4.60;99.90;;;;;;5070982;28;20027;-80
2021/03/26 01:45:00;;;;;;;12.40;6.40;;;4.50;99.90;;;;;;5072133;28;20121;-80
2021/03/26 01:47:28;;;;;;;13.63;7.20;;;4.50;99.90;;;;;;5073769;28;20397;-80
2021/03/26 01:49:53;;;;;;;15.87;7.47;;;4.40;99.90;;;;;;5075834;28;20025;-80
2021/03/26 01:52:19;;;;;;;11.93;7.03;;;4.40;99.90;;;;;;5074055;28;20021;-73
2021/03/26 01:54:45;;;;;;;12.13;6.60;;;4.40;99.90;;;;;;5073043;28;20024;-72
2021/03/26 01:57:11;;;;;;;13.63;6.87;;;4.30;99.90;;;;;;5073286;28;20480;-71
2021/03/26 01:59:37;;;;;;;14.20;7.30;;;4.30;99.90;;;;;;5073187;28;20043;-71
2021/03/26 02:02:15;;;;;;;10.80;6.50;;;4.30;99.90;;;;;;5073169;28;20085;-72
2021/03/26 02:04:45;;;;;;;11.93;6.67;;;4.30;99.90;;;;;;5073145;28;20435;-71
2021/03/26 02:07:15;;;;;;;11.90;7.00;;;4.30;99.90;;;;;;5073399;28;20199;-71
2021/03/26 02:09:41;;;;;;;13.33;7.23;;;4.30;99.90;;;;;;5084977;28;20368;-71
2021/03/26 02:12:10;;;;;;;15.00;7.10;;;4.20;99.90;;;;;;5055510;28;20123;-72
2021/03/26 02:14:43;;;;;;;12.33;6.23;;;4.20;99.90;;;;;;5072764;28;20047;-73
2021/03/26 02:17:13;;;;;;;15.33;6.97;;;4.10;99.90;;;;;;5073518;28;20024;-79
2021/03/26 02:19:50;;;;;;;12.23;7.53;;;4.10;99.90;;;;;;5056342;28;20365;-79
2021/03/26 02:22:17;;;;;;;14.37;7.00;;;4.10;99.90;;;;;;5073753;28;20020;-79
2021/03/26 02:24:46;;;;;;;14.80;7.37;;;4.00;99.90;;;;;;5073292;28;20373;-79
2021/03/26 02:27:18;;;;;;;15.67;7.07;;;4.00;99.90;;;;;;5073873;28;20052;-79
2021/03/26 02:29:44;;;;;;;14.67;7.00;;;4.00;99.90;;;;;;5073561;28;20031;-79
2021/03/26 02:32:28;;;;;;;12.77;6.57;;;4.00;99.90;;;;;;5073358;28;20021;-79
2021/03/26 02:35:27;;;;;;;13.00;6.60;;;3.90;99.90;;;;;;5072839;28;20033;-73
2021/03/26 02:38:17;;;;;;;14.40;6.97;;;3.90;99.90;;;;;;5063642;28;20048;-73
2021/03/26 02:41:00;;;;;;;12.47;6.57;;;3.90;99.90;;;;;;5042102;28;20028;-73
2021/03/26 02:43:39;;;;;;;15.20;7.53;;;3.80;99.90;;;;;;5084988;28;20028;-79
2021/03/26 02:46:14;;;;;;;12.60;6.70;;;3.70;99.90;;;;;;5073034;28;20021;-79
2021/03/26 02:49:03;;;;;;;;;;;3.70;99.90;;;;;;5053658;28;20040;-79
2021/03/26 02:51:36;;;;;;;11.23;6.73;;;3.60;99.90;;;;;;5053099;28;19908;-73
2021/03/26 02:54:11;;;;;;;15.50;7.10;;;3.60;99.90;;;;;;5073227;28;20449;-72
2021/03/26 02:57:04;;;;;;;11.83;6.87;;;3.60;99.90;;;;;;5072596;28;20080;-72
2021/03/26 03:00:01;;;;;;;20.57;7.60;;;3.60;99.90;;;;;;5059232;28;20052;-73
2021/03/26 03:02:29;;;;;;;18.03;6.93;;;3.60;99.90;;;;;;5050464;28;20519;-80
2021/03/26 03:05:10;;;;;;;13.03;7.00;;;3.50;99.90;;;;;;5074449;28;20029;-80
2021/03/26 03:07:44;;;;;;;12.40;6.70;;;3.60;99.90;;;;;;5074273;28;20096;-80
2021/03/26 03:10:16;;;;;;;14.07;7.03;;;3.60;99.90;;;;;;5074608;28;20021;-80
2021/03/26 03:12:42;;;;;;;12.83;6.97;;;3.60;99.90;;;;;;5074279;28;20021;-80
2021/03/26 03:15:30;;;;;;;13.40;6.57;;;3.70;99.90;;;;;;5074353;28;20028;-80
2021/03/26 03:18:08;;;;;;;14.60;6.80;;;3.70;99.90;;;;;;5074224;28;20031;-80
2021/03/26 03:20:52;;;;;;;14.13;7.43;;;3.80;99.90;;;;;;5074566;28;20097;-80
2021/03/26 03:23:41;;;;;;;17.77;7.77;;;3.80;99.90;;;;;;5073901;28;20024;-80
2021/03/26 03:26:19;;;;;;;18.70;7.70;;;3.90;99.90;;;;;;5074012;28;20111;-80
2021/03/26 03:29:23;;;;;;;14.03;7.20;;;3.90;99.90;;;;;;5061010;28;20031;-80
2021/03/26 03:32:08;;;;;;;13.57;7.23;;;3.90;99.90;;;;;;5035631;28;20036;-80
2021/03/26 03:34:39;;;;;;;18.83;7.40;;;4.00;99.90;;;;;;5074316;28;20036;-80
2021/03/26 03:37:14;;;;;;;10.00;5.80;;;4.00;99.90;;;;;;5074193;28;20020;-80
2021/03/26 03:40:06;;;;;;;13.33;5.97;;;4.00;99.90;;;;;;5073198;28;20077;-80
2021/03/26 03:42:48;;;;;;;12.87;7.07;;;4.00;99.90;;;;;;5061494;28;20082;-80
2021/03/26 03:45:20;;;;;;;15.17;6.57;;;4.00;99.90;;;;;;5071822;28;20074;-80
2021/03/26 03:47:48;;;;;;;13.90;6.53;;;4.00;99.90;;;;;;5074801;28;20031;-71
2021/03/26 03:50:22;;;;;;;15.77;6.30;;;3.90;99.90;;;;;;5056856;28;20077;-71
2021/03/26 03:53:02;;;;;;;11.27;6.30;;;3.80;99.90;;;;;;5080027;28;20028;-72
2021/03/26 03:55:48;;;;;;;17.47;7.57;;;3.80;99.90;;;;;;5062663;28;20021;-72
2021/03/26 03:58:29;;;;;;;15.17;6.70;;;3.70;99.90;;;;;;5053176;28;20047;-71
2021/03/26 04:01:20;;;;;;;13.67;6.70;;;3.70;99.90;;;;;;5070791;28;20078;-71
2021/03/26 04:03:57;;;;;;;13.63;6.93;;;3.70;99.90;;;;;;5070951;28;20058;-71
2021/03/26 04:06:37;;;;;;;14.23;6.93;;;3.60;99.90;;;;;;5052873;28;20070;-71
2021/03/26 04:09:10;;;;;;;13.90;7.40;;;3.50;99.90;;;;;;5070617;28;20044;-71
2021/03/26 04:11:46;;;;;;;13.07;6.87;;;3.40;99.90;;;;;;5070522;28;20024;-71
2021/03/26 04:14:48;;;;;;;16.33;6.90;;;3.30;99.90;;;;;;5070593;28;20086;-71
2021/03/26 04:17:26;;;;;;;13.43;6.60;;;3.20;99.90;;;;;;5052787;28;20374;-71
2021/03/26 04:19:57;;;;;;;17.53;6.07;;;3.10;99.90;;;;;;5070339;28;20036;-71
2021/03/26 04:22:29;;;;;;;11.27;5.93;;;3.10;99.90;;;;;;5060128;28;20032;-71
2021/03/26 04:25:18;;;;;;;16.13;8.10;;;3.00;99.90;;;;;;5070097;28;20021;-72
2021/03/26 04:27:47;;;;;;;12.87;6.50;;;3.00;99.90;;;;;;5070570;28;20465;-73
2021/03/26 04:30:24;;;;;;;10.90;6.27;;;2.90;99.90;;;;;;5070178;28;20535;-73
2021/03/26 04:32:51;;;;;;;13.40;6.53;;;2.90;99.90;;;;;;5070200;28;20079;-72
2021/03/26 04:35:18;;;;;;;14.10;6.73;;;2.80;99.90;;;;;;5069961;28;20029;-73
2021/03/26 04:38:07;;;;;;;11.50;6.27;;;2.80;99.90;;;;;;5070130;28;20476;-72
2021/03/26 04:40:36;;;;;;;12.00;6.23;;;2.80;99.90;;;;;;5070319;28;20024;-72
2021/03/26 04:43:19;;;;;;;10.73;6.33;;;2.70;99.90;;;;;;5070263;28;20028;-72
2021/03/26 04:46:18;;;;;;;12.77;7.13;;;2.70;99.90;;;;;;5057141;28;20027;-72
2021/03/26 04:48:57;;;;;;;12.23;6.27;;;2.70;99.90;;;;;;5069875;28;20722;-73
2021/03/26 04:51:29;;;;;;;11.67;6.90;;;2.70;99.90;;;;;;5069977;28;20044;-72
2021/03/26 04:53:58;;;;;;;16.73;7.60;;;2.70;99.90;;;;;;5065672;28;20021;-72
2021/03/26 04:56:28;;;;;;;12.73;6.93;;;2.70;99.90;;;;;;5060792;28;20030;-72
2021/03/26 04:59:00;;;;;;;13.70;7.43;;;2.70;99.90;;;;;;5069832;28;20047;-72
2021/03/26 05:01:27;;;;;;;14.17;7.23;;;2.60;99.90;;;;;;5070003;28;20377;-73
2021/03/26 05:04:17;;;;;;;14.57;7.40;;;2.60;99.90;;;;;;5069790;28;20040;-72
2021/03/26 05:06:48;;;;;;;13.77;6.73;;;2.60;99.90;;;;;;5069345;28;20374;-73
2021/03/26 05:09:18;;;;;;;16.90;7.17;;;2.60;99.90;;;;;;5071406;28;20016;-71
2021/03/26 05:11:47;;;;;;;12.53;6.47;;;2.50;99.90;;;;;;5076158;28;20352;-71
2021/03/26 05:14:26;;;;;;;12.00;6.30;;;2.50;99.90;;;;;;5069623;28;20043;-71
2021/03/26 05:17:25;;;;;;;11.87;5.93;;;2.50;99.90;;;;;;5061019;28;20051;-71
2021/03/26 05:20:16;;;;;;;18.60;7.60;;;2.40;99.90;;;;;;5051935;28;20045;-72
2021/03/26 05:22:56;;;;;;;17.10;6.90;;;2.40;99.90;;;;;;5063819;28;20532;-72
2021/03/26 05:25:41;;;;;;;15.23;8.07;;;2.30;99.90;;;;;;5070342;28;20025;-80
2021/03/26 05:28:14;;;;;;;13.18;7.75;;;2.30;99.90;;;;;;5082512;28;20495;-80
2021/03/26 05:30:43;;;;;;;11.27;6.87;;;2.30;99.90;;;;;;5087820;28;20094;-80
2021/03/26 05:33:49;;;;;;;20.93;7.53;;;2.30;99.90;;;;;;5080703;28;20031;-80
2021/03/26 05:36:40;;;;;;;14.90;7.55;;;2.30;99.90;;;;;;5087217;28;20024;-80
2021/03/26 05:39:17;;;;;;;19.80;6.70;;;2.30;99.90;;;;;;5079247;28;20020;-80
2021/03/26 05:41:54;;;;;;;12.87;6.87;;;2.30;99.90;;;;;;5079619;28;20042;-80
2021/03/26 05:44:36;;;;;;;13.53;6.90;;;2.40;99.90;;;;;;5057502;28;20047;-80
2021/03/26 05:47:23;;;;;;;15.77;6.40;;;2.40;99.90;;;;;;5071776;28;20493;-80
2021/03/26 05:50:07;;;;;;;17.97;8.03;;;2.50;99.90;;;;;;5077826;28;20545;-80
2021/03/26 05:52:58;;;;;;;15.30;6.80;;;2.50;99.90;;;;;;5053827;28;20020;-80
2021/03/26 05:55:36;;;;;;;12.87;6.60;;;2.60;99.90;;;;;;5064287;28;20033;-81
2021/03/26 05:58:38;;;;;;;14.37;6.60;;;2.70;99.90;;;;;;5048749;28;20029;-72
2021/03/26 06:01:21;;;;;;;14.00;6.80;;;2.80;99.90;;;;;;5060276;28;20032;-72
2021/03/26 06:04:08;;;;;;;14.47;6.97;;;2.90;99.90;;;;;;5054919;28;20060;-72
2021/03/26 06:06:44;;;;;;;16.27;6.80;;;2.90;99.90;;;;;;5073478;28;20484;-77
2021/03/26 06:09:47;;;;;;;13.73;6.67;;;3.00;99.90;;;;;;5072902;28;20075;-75
2021/03/26 06:12:46;;;;;;;18.27;7.17;;;3.10;99.90;;;;;;5070830;28;20036;-78
2021/03/26 06:15:39;;;;;;;19.13;7.63;;;3.20;99.90;;;;;;5069857;28;20413;-75
2021/03/26 06:18:22;;;;;;;13.70;6.70;;;3.20;99.90;;;;;;5067908;28;20071;-84
2021/03/26 06:20:59;;;;;;;15.97;7.03;;;3.30;99.90;;;;;;5069137;28;20021;-84
2021/03/26 06:23:41;;;;;;;15.30;7.30;;;3.40;99.90;;;;;;5071768;28;20024;-84
2021/03/26 06:26:52;;;;;;;15.77;6.70;;;3.50;99.90;;;;;;5067756;28;20027;-81
2021/03/26 06:29:42;;;;;;;12.17;7.00;;;3.60;99.90;;;;;;5075808;28;20071;-82
2021/03/26 06:32:35;;;;;;;13.97;7.40;;;3.80;99.90;;;;;;5068399;28;20017;-74
2021/03/26 06:35:23;;;;;;;14.43;7.23;;;3.90;99.90;;;;;;5054781;28;20081;-74
2021/03/26 06:38:00;;;;;;;12.40;7.40;;;4.10;99.90;;;;;;5055781;28;20029;-74
2021/03/26 06:40:47;;;;;;;16.93;6.93;;;4.30;99.90;;;;;;5055555;28;20032;-74
2021/03/26 06:43:37;;;;;;;17.77;6.83;;;4.40;99.90;;;;;;5071914;28;20047;-74
2021/03/26 06:46:21;;;;;;;12.50;5.80;;;4.60;99.90;;;;;;5057676;28;20024;-83
2021/03/26 06:49:12;;;;;;;16.20;6.30;;;4.80;99.90;;;;;;5073090;28;20019;-81
2021/03/26 06:51:56;;;;;;;18.23;6.10;;;5.00;99.90;;;;;;5055738;28;20377;-74
2021/03/26 06:54:50;;;;;;;12.77;5.83;;;5.10;99.90;;;;;;5062857;28;20016;-82
2021/03/26 07:00:20;;;;;;;12.07;5.50;;;5.40;99.90;;;;;;4948464;26;20057;-82
2021/03/26 07:02:52;;;;;;;;;;;5.60;99.90;;;;;;5053674;28;20055;-81
2021/03/26 07:05:34;;;;;;;10.40;4.90;;;5.80;99.90;;;;;;5024186;28;20012;-82
2021/03/26 07:08:27;;;;;;;16.63;5.53;;;5.90;99.90;;;;;;5031367;28;20025;-82
2021/03/26 07:11:09;;;;;;;15.97;5.60;;;6.10;99.90;;;;;;5038630;28;20017;-81
2021/03/26 07:13:53;;;;;;;10.60;4.70;;;6.30;99.90;;;;;;5042536;28;20068;-82
2021/03/26 07:16:37;;;;;;;13.17;4.93;;;6.40;99.90;;;;;;5045224;28;20102;-82
2021/03/26 07:19:33;;;;;;;13.70;5.43;;;6.70;99.90;;;;;;5045907;28;20020;-81
2021/03/26 07:22:19;;;;;;;8.07;4.20;;;6.80;99.90;;;;;;5062509;28;20022;-81
2021/03/26 07:25:14;;;;;;;8.63;4.43;;;7.00;99.90;;;;;;5048528;28;20053;-73
2021/03/26 07:27:46;;;;;;;9.10;4.33;;;7.10;99.90;;;;;;5021792;28;20117;-74
2021/03/26 07:30:22;;;;;;;10.10;4.47;;;7.30;99.90;;;;;;5014999;28;20112;-81
2021/03/26 07:33:07;;;;;;;12.13;4.67;;;7.50;99.90;;;;;;5035418;28;20017;-81
2021/03/26 07:36:19;;;;;;;8.65;4.75;;;7.60;99.90;;;;;;5016969;28;20466;-81
2021/03/26 07:39:10;;;;;;;10.17;5.07;;;7.80;99.90;;;;;;4987346;28;20117;-84
2021/03/26 07:42:00;;;;;;;10.57;4.70;;;8.00;99.90;;;;;;5037874;28;20125;-84
2021/03/26 07:45:04;;;;;;;14.90;4.70;;;8.20;99.90;;;;;;5029220;28;20046;-85
2021/03/26 07:48:12;;;;;;;11.53;5.20;;;8.40;99.90;;;;;;5030578;28;20022;-84
2021/03/26 07:51:10;;;;;;;12.23;4.90;;;8.50;99.90;;;;;;5023839;28;20030;-75
2021/03/26 07:54:12;;;;;;;9.10;4.43;;;8.60;99.90;;;;;;5038079;28;20021;-74
2021/03/26 07:56:50;;;;;;;9.80;5.60;;;8.70;99.90;;;;;;5012660;28;20034;-74
2021/03/26 07:59:48;;;;;;;11.87;5.37;;;8.80;99.90;;;;;;5020133;28;20076;-75
2021/03/26 08:02:36;;;;;;;16.20;5.30;;;9.00;99.90;;;;;;5034699;28;20037;-81
2021/03/26 08:05:15;;;;;;;14.77;5.57;;;9.10;99.90;;;;;;5029257;28;20059;-75
2021/03/26 08:08:09;;;;;;;14.83;4.80;;;9.20;99.90;;;;;;5009952;28;20033;-75
2021/03/26 08:10:51;;;;;;;15.30;5.13;;;9.30;99.90;;;;;;5032493;28;20025;-75
2021/03/26 08:13:35;;;;;;;13.20;6.30;;;9.40;99.90;;;;;;5033917;28;20037;-75
2021/03/26 08:16:17;;;;;;;16.30;6.33;;;9.60;99.90;;;;;;5035709;28;20489;-84
2021/03/26 08:18:58;;;;;;;19.40;7.10;;;9.70;99.90;;;;;;5032981;28;20040;-75
2021/03/26 08:21:29;;;;;;;23.50;8.60;;;9.80;99.90;;;;;;5016566;28;20488;-75
2021/03/26 08:24:24;;;;;;;17.37;7.70;;;10.00;99.90;;;;;;5017700;28;20034;-75
2021/03/26 08:27:15;;;;;;;18.77;7.53;;;10.10;99.90;;;;;;5013037;28;20573;-75
2021/03/26 08:29:51;;;;;;;19.07;7.67;;;10.20;99.90;;;;;;5029780;28;20390;-82
2021/03/26 08:32:54;;;;;;;13.93;7.23;;;10.20;99.90;;;;;;5024914;28;20029;-82
2021/03/26 08:35:43;;;;;;;15.00;7.53;;;10.30;99.90;;;;;;5011805;28;20021;-75
2021/03/26 08:38:34;;;;;;;16.00;7.73;;;10.30;99.90;;;;;;5014753;28;20017;-75
2021/03/26 08:41:20;;;;;;;14.77;7.90;;;10.50;99.90;;;;;;5017669;28;20033;-73
2021/03/26 08:43:51;;;;;;;16.50;7.87;;;10.60;99.90;;;;;;5013493;28;20037;-73
2021/03/26 08:46:38;;;;;;;15.57;8.03;;;10.70;99.90;;;;;;4997582;28;20026;-73
2021/03/26 08:49:22;;;;;;;21.80;9.00;;;10.80;99.90;;;;;;5019066;28;20111;-73
2021/03/26 08:51:56;;;;;;;15.47;7.60;;;10.90;99.90;;;;;;5011966;28;20030;-72
2021/03/26 08:54:49;;;;;;;15.10;8.88;;;11.00;99.90;;;;;;5016823;28;20074;-73
2021/03/26 08:57:29;;;;;;;21.70;8.82;;;11.10;99.90;;;;;;5015295;28;20032;-73
2021/03/26 09:00:13;;;;;;;18.60;8.98;;;11.20;99.90;;;;;;5019047;28;20816;-73
2021/03/26 09:03:17;;;;;;;20.50;9.67;;;11.30;99.90;;;;;;5002903;28;20508;-73
2021/03/26 09:06:03;;;;;;;21.23;9.23;;;11.40;99.90;;;;;;5025548;28;20040;-82
2021/03/26 09:08:47;;;;;;;18.60;9.88;;;11.60;99.90;;;;;;5027991;28;20025;-84
2021/03/26 09:11:42;;;;;;;18.02;9.50;;;11.80;99.90;;;;;;5022385;28;20661;-67
2021/03/26 09:14:40;;;;;;;20.48;10.00;;;12.00;99.90;;;;;;5025066;28;20512;-66
2021/03/26 09:17:25;;;;;;;20.88;9.60;;;12.10;99.90;;;;;;5027053;28;20049;-67
2021/03/26 09:20:01;;;;;;;21.38;9.93;;;12.20;99.90;;;;;;5015048;28;20030;-68
2021/03/26 09:22:47;;;;;;;21.02;9.30;;;12.30;98.40;;;;;;5020442;28;20028;-66
2021/03/26 09:25:43;;;;;;;22.95;9.18;;;12.40;99.10;;;;;;5023892;28;20466;-68
2021/03/26 09:28:30;;;;;;;23.88;10.75;;;12.60;97.30;;;;;;5031349;28;20025;-68
2021/03/26 09:31:15;;;;;;;18.67;9.27;;;12.80;95.40;;;;;;5038286;28;20075;-68
2021/03/26 09:34:02;;;;;;;18.88;9.77;;;12.90;96.50;;;;;;5035133;28;20024;-68
2021/03/26 09:36:39;;;;;;;22.13;9.00;;;13.10;96.40;;;;;;5017662;28;20041;-67
2021/03/26 09:39:07;;;;;;;22.38;9.98;;;13.20;96.60;;;;;;5020204;28;20084;-67
2021/03/26 09:41:53;;;;;;;17.50;9.38;;;13.40;95.10;;;;;;5029760;28;20033;-67
2021/03/26 09:44:38;;;;;;;17.77;9.60;;;13.60;94.10;;;;;;5024645;28;20109;-68
2021/03/26 09:47:29;;;;;;;19.75;10.27;;;14.00;90.70;;;;;;5041346;28;20373;-68
2021/03/26 09:50:22;;;;;;;19.55;10.00;;;14.00;90.40;;;;;;5030584;28;20413;-68
2021/03/26 09:52:49;;;;;;;18.40;9.73;;;14.30;90.20;;;;;;5015281;28;20386;-68
2021/03/26 09:55:18;;;;;;;21.58;9.82;;;14.50;90.10;;;;;;5015876;28;20032;-67
2021/03/26 09:58:07;;;;;;;22.33;10.60;;;14.60;86.90;;;;;;5017623;28;20030;-66
2021/03/26 10:00:44;;;;;;;20.05;10.65;;;14.70;86.00;;;;;;5014826;28;20104;-66
2021/03/26 10:03:37;;;;;;;19.65;9.98;;;14.90;83.40;;;;;;5018541;28;20026;-67
2021/03/26 10:06:29;;;;;;;16.95;9.60;;;14.90;83.40;;;;;;5017910;28;20021;-67
2021/03/26 10:11:58;;;;;;;25.88;10.65;;;15.20;81.30;;;;;;5047699;28;20021;-67
2021/03/26 10:14:31;;;;;;;21.17;9.88;;;15.30;81.80;;;;;;5043439;28;20022;-67
2021/03/26 10:17:11;;;;;;;17.80;9.65;;;15.30;80.80;;;;;;5034097;28;20033;-66
2021/03/26 10:19:43;;;;;;;18.50;10.18;;;15.60;80.40;;;;;;5019442;28;20108;-66
2021/03/26 10:22:39;;;;;;;19.95;11.20;;;15.70;79.50;;;;;;5017535;28;20032;-65
2021/03/26 10:25:32;;;;;;;21.05;9.73;;;15.70;76.20;;;;;;5033859;28;20048;-66
2021/03/26 10:28:17;;;;;;;20.35;9.68;;;15.90;77.40;;;;;;5035621;28;20018;-67
2021/03/26 10:30:45;;;;;;;16.42;9.60;;;16.00;75.00;;;;;;5021321;28;20090;-66
2021/03/26 10:33:13;;;;;;;23.52;10.77;;;16.20;72.10;;;;;;5026234;28;20033;-66
2021/03/26 10:35:50;;;;;;;19.65;10.00;;;16.50;73.00;;;;;;5025814;28;20065;-67
2021/03/26 10:38:21;;;;;;;16.67;9.30;;;16.40;70.30;;;;;;5029610;28;20025;-68
2021/03/26 10:40:57;;;;;;;19.17;9.48;;;16.50;71.00;;;;;;5029448;28;20105;-68
2021/03/26 10:43:33;;;;;;;17.88;10.13;;;16.60;72.70;;;;;;5028913;28;20326;-67
2021/03/26 10:46:34;;;;;;;20.13;10.13;;;16.70;69.80;;;;;;5020503;28;20025;-66
2021/03/26 10:49:22;;;;;;;27.67;10.40;;;16.80;70.80;;;;;;4980024;28;20382;-67
2021/03/26 10:52:07;;;;;;;20.42;10.55;;;17.00;70.90;;;;;;5019768;28;20141;-68
2021/03/26 10:54:44;;;;;;;24.05;11.65;;;17.10;71.00;;;;;;5031963;28;20614;-68
2021/03/26 10:57:09;;;;;;;19.05;10.48;;;17.10;69.00;;;;;;5031810;28;20794;-68
2021/03/26 10:59:42;;;;;;;24.08;11.18;;;17.20;70.00;;;;;;5032270;28;20079;-67
2021/03/26 11:02:26;;;;;;;19.42;10.07;;;17.40;69.10;;;;;;5037838;28;20102;-68
2021/03/26 11:05:07;;;;;;;18.80;10.23;;;17.40;69.70;;;;;;5035150;28;20047;-70
2021/03/26 11:07:43;;;;;;;19.27;9.40;;;17.50;69.00;;;;;;5039149;28;20481;-67
2021/03/26 11:10:13;;;;;;;18.45;9.20;;;17.50;66.10;;;;;;5050742;28;20072;-67
2021/03/26 11:12:55;;;;;;;21.67;8.63;;;17.50;64.50;;;;;;5033425;28;20021;-67
2021/03/26 11:15:27;;;;;;;16.85;8.65;;;17.80;63.30;;;;;;5024405;28;20061;-68
2021/03/26 11:18:16;;;;;;;18.67;7.88;;;17.80;61.00;;;;;;5027302;28;20037;-70
2021/03/26 11:21:02;;;;;;;16.75;7.95;;;17.80;62.00;;;;;;5028411;28;20021;-69
2021/03/26 11:23:30;;;;;;;14.65;8.50;;;17.80;62.70;;;;;;5031457;28;20045;-69
2021/03/26 11:26:04;;;;;;;14.60;8.27;;;17.90;60.30;;;;;;5031698;28;20179;-67
2021/03/26 11:28:46;;;;;;;17.63;8.82;;;17.80;59.40;;;;;;5030959;28;20349;-67
2021/03/26 11:31:25;;;;;;;17.98;9.45;;;17.80;60.50;;;;;;5019050;28;20033;-68
2021/03/26 11:34:21;;;;;;;16.10;8.30;;;18.00;63.10;;;;;;5022525;28;20542;-68
2021/03/26 11:36:47;;;;;;;18.95;9.30;;;18.00;61.80;;;;;;5018890;28;20056;-69
2021/03/26 11:39:16;;;;;;;18.30;9.88;;;18.10;62.70;;;;;;5016713;28;20025;-69
2021/03/26 11:42:03;;;;;;;16.70;8.65;;;18.30;63.00;;;;;;5018156;28;20030;-69
2021/03/26 11:44:31;;;;;;;15.77;8.88;;;18.30;61.00;;;;;;5033509;28;20167;-69
2021/03/26 11:47:02;;;;;;;15.60;8.10;;;18.30;58.40;;;;;;5048116;28;20027;-68
2021/03/26 11:49:38;;;;;;;15.82;7.93;;;18.40;57.80;;;;;;5027740;28;20434;-68
2021/03/26 11:52:09;;;;;;;15.02;8.43;;;18.40;58.10;;;;;;5045257;28;20024;-68
2021/03/26 11:55:02;;;;;;;13.48;7.55;;;18.20;56.60;;;;;;5033769;28;20021;-68
2021/03/26 11:57:36;;;;;;;18.98;8.93;;;18.20;57.80;;;;;;5037601;28;20022;-68
2021/03/26 12:00:14;;;;;;;17.40;9.25;;;18.10;59.10;;;;;;5031774;28;20041;-68
2021/03/26 12:02:50;;;;;;;17.38;8.40;;;18.20;58.30;;;;;;5025195;28;20033;-68
2021/03/26 12:05:37;;;;;;;20.65;8.90;;;18.30;58.50;;;;;;5022714;28;20037;-67
2021/03/26 12:08:26;;;;;;;15.98;8.55;;;18.40;56.70;;;;;;5020492;28;20018;-68
2021/03/26 12:11:12;;;;;;;15.35;7.93;;;18.20;56.40;;;;;;5015190;28;20470;-68
2021/03/26 12:13:40;;;;;;;14.60;7.78;;;18.00;55.70;;;;;;5027155;28;20041;-67
2021/03/26 12:16:14;;;;;;;16.05;6.72;;;18.20;56.90;;;;;;5031412;28;20641;-67
2021/03/26 12:19:12;;;;;;;13.75;7.18;;;18.30;56.00;;;;;;5028368;28;20065;-68
2021/03/26 12:21:47;;;;;;;16.52;7.47;;;18.40;56.90;;;;;;5025362;28;20389;-67
2021/03/26 12:24:41;;;;;;;15.43;7.13;;;18.60;54.80;;;;;;5029413;28;20021;-68
2021/03/26 12:27:19;;;;;;;12.13;5.20;;;18.70;54.50;;;;;;5019584;28;20460;-68
2021/03/26 12:29:47;;;;;;;14.45;5.57;;;18.90;53.20;;;;;;5024094;28;20117;-67
2021/03/26 12:32:31;;;;;;;12.77;5.25;;;19.00;53.10;;;;;;5023897;28;20049;-69
2021/03/26 12:35:07;;;;;;;9.60;5.40;;;19.30;50.60;;;;;;5018554;28;20485;-68
2021/03/26 12:38:01;;;;;;;8.68;5.65;;;19.40;50.80;;;;;;5023439;28;20041;-69
2021/03/26 12:40:45;;;;;;;10.27;5.88;;;19.10;50.10;;;;;;5023083;28;20030;-69
2021/03/26 12:43:18;;;;;;;10.63;5.80;;;18.90;51.00;;;;;;5008712;28;20110;-69
2021/03/26 12:46:10;;;;;;;14.18;5.63;;;18.70;52.40;;;;;;5023381;28;20053;-69
2021/03/26 12:48:42;;;;;;;11.32;5.13;;;18.90;52.10;;;;;;5019665;28;20053;-69
2021/03/26 12:51:26;;;;;;;8.50;4.82;;;19.00;52.00;;;;;;5030923;28;20028;-68
2021/03/26 12:54:08;;;;;;;8.77;5.97;;;19.50;50.90;;;;;;5032077;28;20409;-68
2021/03/26 12:56:41;;;;;;;9.18;4.53;;;19.60;50.60;;;;;;5040990;28;20025;-68
2021/03/26 12:59:17;;;;;;;9.73;4.40;;;19.40;49.50;;;;;;5036951;28;20224;-68
2021/03/26 13:01:46;;;;;;;6.20;3.95;;;19.40;52.80;;;;;;5032109;28;20038;-69
2021/03/26 13:04:38;;;;;;;12.07;4.35;;;19.40;52.60;;;;;;5035119;28;20059;-69
2021/03/26 13:07:20;;;;;;;10.93;4.90;;;19.60;52.00;;;;;;4996866;28;20127;-69
2021/03/26 13:09:53;;;;;;;10.07;5.15;;;19.70;50.60;;;;;;5034992;28;20469;-69
2021/03/26 13:12:33;;;;;;;10.23;4.50;;;19.80;50.30;;;;;;5034331;28;20025;-69
2021/03/26 13:15:23;;;;;;;6.72;3.80;;;19.90;49.10;;;;;;5026253;28;20029;-69
2021/03/26 13:18:00;;;;;;;5.25;3.08;;;19.90;48.60;;;;;;5013578;28;20505;-68
2021/03/26 13:20:26;;;;;;;5.75;3.97;;;19.70;45.70;;;;;;5028703;28;20025;-68
2021/03/26 13:23:02;;;;;;;5.68;3.50;;;19.50;45.80;;;;;;5027421;28;20018;-68
2021/03/26 13:25:51;;;;;;;7.50;3.00;;;19.60;45.80;;;;;;5025425;28;20036;-68
2021/03/26 13:28:25;;;;;;;4.18;2.85;;;19.80;45.00;;;;;;5028483;28;20033;-68
2021/03/26 13:30:57;;;;;;;4.93;2.70;;;19.80;45.60;;;;;;5030486;28;20095;-69
2021/03/26 13:33:28;;;;;;;7.68;2.85;;;19.80;45.80;;;;;;5029702;28;20026;-69
2021/03/26 13:36:20;;;;;;;4.30;3.08;;;19.70;46.50;;;;;;5029729;28;20486;-68
2021/03/26 13:39:21;;;;;;;4.18;3.05;;;19.80;46.40;;;;;;5035672;28;20029;-70
2021/03/26 13:41:58;;;;;;;6.03;2.20;;;19.80;45.50;;;;;;5023371;28;20057;-68
2021/03/26 13:44:44;;;;;;;5.38;2.50;;;19.80;45.50;;;;;;5043231;28;20052;-70
2021/03/26 13:47:18;;;;;;;5.30;2.97;;;19.70;44.90;;;;;;5033450;28;20027;-69
2021/03/26 13:50:11;;;;;;;6.05;2.88;;;19.70;46.10;;;;;;5023745;28;20033;-70
2021/03/26 13:52:42;;;;;;;6.38;2.92;;;19.80;45.00;;;;;;5017967;28;20101;-69